createdAt,value
2019-06-20T02:00:50.281Z,0.00
2019-06-20T02:01:50.278Z,0.00
2019-06-20T02:02:50.255Z,0.00
2019-06-20T02:03:50.243Z,0.00
2019-06-20T02:04:50.242Z,0.00
2019-06-20T02:05:50.222Z,0.00
2019-06-20T02:06:50.267Z,0.00
2019-06-20T02:08:50.193Z,0.00
2019-06-20T02:09:50.182Z,0.00
2019-06-20T02:10:50.178Z,0.00
2019-06-20T02:11:50.159Z,0.00
2019-06-20T02:12:50.163Z,0.00
2019-06-20T02:14:03.574Z,0.00
2019-06-20T02:15:14.603Z,0.00
2019-06-20T02:16:14.597Z,0.00
2019-06-20T02:17:14.580Z,0.00
2019-06-20T02:18:14.569Z,0.00
2019-06-20T02:19:14.570Z,0.00
2019-06-20T02:20:14.556Z,0.00
2019-06-20T02:21:14.545Z,0.00
2019-06-20T02:22:14.526Z,0.00
2019-06-20T02:23:14.519Z,0.00
2019-06-20T02:24:14.516Z,0.00
2019-06-20T02:25:14.530Z,0.00
2019-06-20T02:26:14.496Z,0.00
2019-06-20T02:27:14.543Z,0.00
2019-06-20T02:28:14.460Z,0.00
2019-06-20T02:29:14.447Z,0.00
2019-06-20T02:30:14.444Z,0.00
2019-06-20T02:31:14.426Z,0.00
2019-06-20T02:32:14.415Z,0.00
2019-06-20T02:33:14.412Z,0.00
2019-06-20T02:34:14.394Z,0.00
2019-06-20T02:35:14.380Z,0.00
2019-06-20T02:36:14.371Z,0.00
2019-06-20T02:37:14.359Z,0.00
2019-06-20T02:38:14.351Z,0.00
2019-06-20T02:39:14.343Z,0.00
2019-06-20T02:40:14.339Z,0.00
2019-06-20T02:41:14.323Z,0.00
2019-06-20T02:42:14.305Z,0.00
2019-06-20T02:43:14.296Z,0.00
2019-06-20T02:44:28.970Z,0.00
2019-06-20T02:45:38.763Z,5.62
2019-06-20T02:46:38.739Z,5.62
2019-06-20T02:47:38.726Z,5.62
2019-06-20T02:48:38.717Z,5.62
2019-06-20T02:49:38.708Z,5.62
2019-06-20T02:50:38.693Z,5.62
2019-06-20T02:51:38.682Z,5.62
2019-06-20T02:52:38.669Z,5.62
2019-06-20T02:53:38.661Z,5.62
2019-06-20T02:54:38.654Z,5.62
2019-06-20T02:55:38.638Z,5.62
2019-06-20T02:56:38.631Z,5.62
2019-06-20T02:57:38.623Z,5.62
2019-06-20T02:58:38.606Z,11.25
2019-06-20T02:59:38.596Z,11.25
2019-06-20T03:00:38.588Z,11.25
2019-06-20T03:01:38.574Z,11.25
2019-06-20T03:02:38.561Z,11.25
2019-06-20T03:03:38.553Z,11.25
2019-06-20T03:04:38.542Z,11.25
2019-06-20T03:05:38.529Z,11.25
2019-06-20T03:06:38.515Z,11.25
2019-06-20T03:07:38.518Z,16.87
2019-06-20T03:08:38.495Z,16.87
2019-06-20T03:09:38.483Z,16.87
2019-06-20T03:10:38.470Z,16.87
2019-06-20T03:11:38.464Z,16.87
2019-06-20T03:12:38.448Z,16.87
2019-06-20T03:13:38.437Z,16.87
2019-06-20T03:14:45.355Z,22.50
2019-06-20T03:16:02.891Z,22.50
2019-06-20T03:17:02.881Z,22.50
2019-06-20T03:18:02.872Z,22.50
2019-06-20T03:19:02.867Z,22.50
2019-06-20T03:20:02.860Z,28.12
2019-06-20T03:21:02.836Z,28.12
2019-06-20T03:22:02.830Z,28.12
2019-06-20T03:23:02.867Z,22.50
2019-06-20T03:24:02.802Z,22.50
2019-06-20T03:25:02.794Z,22.50
2019-06-20T03:26:02.781Z,28.12
2019-06-20T03:27:02.770Z,28.12
2019-06-20T03:28:02.759Z,28.12
2019-06-20T03:29:02.753Z,33.75
2019-06-20T03:30:02.748Z,33.75
2019-06-20T03:31:02.752Z,33.75
2019-06-20T03:32:02.720Z,28.12
2019-06-20T03:33:02.711Z,28.12
2019-06-20T03:34:02.696Z,28.12
2019-06-20T03:35:02.682Z,28.12
2019-06-20T03:36:02.671Z,28.12
2019-06-20T03:37:02.660Z,28.12
2019-06-20T03:38:02.703Z,28.12
2019-06-20T03:39:02.635Z,33.75
2019-06-20T03:40:02.629Z,33.75
2019-06-20T03:41:02.636Z,33.75
2019-06-20T03:42:02.607Z,33.75
2019-06-20T03:43:02.599Z,39.37
2019-06-20T03:44:02.586Z,39.37
2019-06-20T03:45:02.820Z,39.37
2019-06-20T03:46:02.600Z,39.37
2019-06-20T03:47:02.594Z,45.00
2019-06-20T03:48:02.538Z,45.00
2019-06-20T03:49:02.542Z,45.00
2019-06-20T03:50:02.543Z,50.62
2019-06-20T03:51:02.554Z,50.62
2019-06-20T03:52:02.494Z,50.62
2019-06-20T03:53:02.493Z,50.62
2019-06-20T03:54:02.475Z,56.25
2019-06-20T03:55:02.474Z,56.25
2019-06-20T03:56:02.455Z,56.25
2019-06-20T03:57:02.444Z,73.12
2019-06-20T03:58:02.427Z,84.37
2019-06-20T03:59:02.414Z,90.00
2019-06-20T04:00:02.727Z,90.00
2019-06-20T04:01:02.407Z,90.00
2019-06-20T04:02:02.387Z,90.00
2019-06-20T04:03:02.373Z,95.62
2019-06-20T04:04:02.360Z,95.62
2019-06-20T04:05:02.347Z,95.62
2019-06-20T04:06:02.349Z,95.62
2019-06-20T04:07:02.329Z,90.00
2019-06-20T04:08:02.314Z,78.75
2019-06-20T04:09:02.306Z,73.12
2019-06-20T04:10:02.294Z,73.12
2019-06-20T04:11:02.281Z,73.12
2019-06-20T04:12:02.273Z,78.75
2019-06-20T04:13:02.258Z,78.75
2019-06-20T04:14:02.250Z,78.75
2019-06-20T04:15:15.028Z,78.75
2019-06-20T04:16:26.705Z,78.75
2019-06-20T04:17:26.690Z,84.37
2019-06-20T04:18:26.682Z,84.37
2019-06-20T04:19:26.668Z,84.37
2019-06-20T04:20:26.661Z,84.37
2019-06-20T04:21:26.651Z,84.37
2019-06-20T04:22:26.635Z,84.37
2019-06-20T04:23:26.625Z,90.00
2019-06-20T04:24:28.036Z,90.00
2019-06-20T04:25:26.601Z,112.50
2019-06-20T04:26:26.591Z,123.75
2019-06-20T04:27:26.579Z,123.75
2019-06-20T04:28:26.578Z,151.87
2019-06-20T04:29:26.570Z,163.12
2019-06-20T04:30:26.546Z,168.75
2019-06-20T04:31:26.540Z,180.00
2019-06-20T04:32:26.524Z,185.62
2019-06-20T04:33:26.514Z,185.62
2019-06-20T04:34:26.503Z,196.87
2019-06-20T04:35:26.492Z,191.25
2019-06-20T04:36:26.490Z,196.87
2019-06-20T04:37:26.472Z,208.12
2019-06-20T04:38:26.461Z,213.75
2019-06-20T04:39:26.454Z,219.37
2019-06-20T04:40:26.445Z,219.37
2019-06-20T04:41:26.431Z,225.00
2019-06-20T04:42:26.427Z,230.62
2019-06-20T04:43:26.405Z,230.62
2019-06-20T04:44:26.402Z,241.87
2019-06-20T04:45:34.996Z,247.50
2019-06-20T04:46:27.397Z,258.75
2019-06-20T04:47:26.363Z,258.75
2019-06-20T04:48:26.359Z,241.87
2019-06-20T04:49:26.342Z,196.87
2019-06-20T04:50:26.329Z,151.87
2019-06-20T04:51:26.328Z,140.62
2019-06-20T04:52:26.310Z,146.25
2019-06-20T04:53:26.298Z,151.87
2019-06-20T04:54:26.284Z,157.50
2019-06-20T04:55:26.283Z,163.12
2019-06-20T04:56:26.263Z,174.37
2019-06-20T04:57:26.252Z,191.25
2019-06-20T04:58:26.250Z,258.75
2019-06-20T04:59:26.236Z,309.37
2019-06-20T05:00:26.219Z,320.62
2019-06-20T05:01:26.208Z,315.00
2019-06-20T05:02:26.197Z,331.87
2019-06-20T05:03:26.187Z,320.62
2019-06-20T05:04:26.176Z,292.50
2019-06-20T05:05:26.166Z,230.62
2019-06-20T05:06:26.159Z,320.62
2019-06-20T05:07:26.145Z,371.25
2019-06-20T05:08:26.139Z,393.75
2019-06-20T05:09:26.129Z,405.00
2019-06-20T05:10:26.109Z,410.62
2019-06-20T05:11:26.099Z,427.50
2019-06-20T05:12:26.088Z,438.75
2019-06-20T05:13:26.083Z,444.37
2019-06-20T05:14:26.064Z,450.00
2019-06-20T05:15:26.055Z,455.62
2019-06-20T05:16:26.052Z,433.12
2019-06-20T05:17:26.035Z,405.00
2019-06-20T05:18:26.023Z,354.37
2019-06-20T05:19:26.013Z,388.12
2019-06-20T05:20:26.001Z,388.12
2019-06-20T05:21:25.991Z,225.00
2019-06-20T05:22:25.983Z,219.37
2019-06-20T05:23:25.970Z,225.00
2019-06-20T05:24:25.959Z,303.75
2019-06-20T05:25:25.948Z,376.87
2019-06-20T05:26:25.937Z,230.62
2019-06-20T05:27:25.927Z,264.37
2019-06-20T05:28:25.936Z,225.00
2019-06-20T05:29:25.922Z,219.37
2019-06-20T05:30:25.895Z,219.37
2019-06-20T05:31:25.895Z,225.00
2019-06-20T05:32:25.882Z,225.00
2019-06-20T05:33:25.859Z,236.25
2019-06-20T05:34:25.854Z,292.50
2019-06-20T05:35:25.838Z,320.62
2019-06-20T05:36:25.831Z,354.37
2019-06-20T05:37:25.817Z,393.75
2019-06-20T05:38:25.810Z,376.87
2019-06-20T05:39:25.797Z,410.62
2019-06-20T05:40:25.785Z,416.25
2019-06-20T05:41:25.776Z,348.75
2019-06-20T05:42:25.771Z,388.12
2019-06-20T05:43:25.753Z,360.00
2019-06-20T05:44:25.756Z,343.12
2019-06-20T05:45:25.816Z,270.00
2019-06-20T05:46:25.728Z,286.87
2019-06-20T05:47:25.712Z,258.75
2019-06-20T05:48:25.700Z,208.12
2019-06-20T05:49:25.690Z,208.12
2019-06-20T05:50:25.678Z,174.37
2019-06-20T05:51:25.670Z,157.50
2019-06-20T05:52:25.657Z,157.50
2019-06-20T05:53:25.646Z,151.87
2019-06-20T05:54:25.636Z,146.25
2019-06-20T05:55:25.624Z,146.25
2019-06-20T05:56:26.058Z,151.87
2019-06-20T05:57:25.603Z,163.12
2019-06-20T05:58:25.591Z,180.00
2019-06-20T05:59:25.772Z,196.87
2019-06-20T06:00:25.570Z,174.37
2019-06-20T06:01:26.423Z,180.00
2019-06-20T06:02:25.553Z,180.00
2019-06-20T06:03:25.539Z,213.75
2019-06-20T06:04:25.530Z,219.37
2019-06-20T06:05:25.519Z,213.75
2019-06-20T06:06:25.513Z,202.50
2019-06-20T06:07:25.497Z,196.87
2019-06-20T06:08:25.487Z,185.62
2019-06-20T06:09:25.472Z,174.37
2019-06-20T06:10:25.463Z,168.75
2019-06-20T06:11:25.450Z,168.75
2019-06-20T06:12:25.443Z,163.12
2019-06-20T06:13:25.431Z,157.50
2019-06-20T06:14:25.421Z,151.87
2019-06-20T06:15:25.411Z,151.87
2019-06-20T06:16:28.195Z,151.87
2019-06-20T06:17:25.389Z,135.00
2019-06-20T06:18:25.376Z,123.75
2019-06-20T06:19:25.370Z,112.50
2019-06-20T06:20:25.355Z,101.25
2019-06-20T06:21:25.341Z,95.62
2019-06-20T06:22:25.337Z,90.00
2019-06-20T06:23:25.325Z,84.37
2019-06-20T06:24:25.354Z,78.75
2019-06-20T06:25:25.317Z,73.12
2019-06-20T06:26:25.292Z,73.12
2019-06-20T06:27:25.276Z,67.50
2019-06-20T06:28:25.267Z,67.50
2019-06-20T06:29:25.283Z,61.87
2019-06-20T06:30:25.248Z,61.87
2019-06-20T06:31:25.233Z,61.87
2019-06-20T06:32:39.263Z,56.25
2019-06-20T06:33:49.693Z,50.62
2019-06-20T06:34:49.672Z,56.25
2019-06-20T06:35:49.662Z,61.87
2019-06-20T06:36:49.717Z,61.87
2019-06-20T06:37:49.644Z,67.50
2019-06-20T06:38:49.628Z,67.50
2019-06-20T06:39:49.617Z,73.12
2019-06-20T06:40:49.606Z,78.75
2019-06-20T06:41:49.691Z,78.75
2019-06-20T06:42:49.584Z,84.37
2019-06-20T06:43:49.575Z,95.62
2019-06-20T06:44:49.563Z,106.87
2019-06-20T06:45:49.553Z,123.75
2019-06-20T06:46:55.379Z,146.25
2019-06-20T06:48:14.003Z,174.37
2019-06-20T06:49:14.014Z,191.25
2019-06-20T06:50:13.980Z,202.50
2019-06-20T06:51:13.967Z,202.50
2019-06-20T06:52:13.956Z,202.50
2019-06-20T06:53:13.951Z,202.50
2019-06-20T06:54:13.940Z,208.12
2019-06-20T06:55:13.928Z,208.12
2019-06-20T06:56:13.917Z,213.75
2019-06-20T06:57:13.901Z,208.12
2019-06-20T06:58:13.913Z,202.50
2019-06-20T06:59:13.877Z,196.87
2019-06-20T07:00:13.866Z,191.25
2019-06-20T07:01:13.862Z,191.25
2019-06-20T07:02:13.846Z,196.87
2019-06-20T07:03:13.833Z,202.50
2019-06-20T07:04:13.827Z,213.75
2019-06-20T07:05:13.809Z,219.37
2019-06-20T07:06:13.811Z,230.62
2019-06-20T07:07:13.788Z,247.50
2019-06-20T07:08:13.784Z,270.00
2019-06-20T07:09:13.766Z,303.75
2019-06-20T07:10:13.755Z,343.12
2019-06-20T07:11:13.783Z,382.50
2019-06-20T07:12:13.733Z,551.25
2019-06-20T07:13:13.721Z,759.37
2019-06-20T07:14:13.714Z,523.12
2019-06-20T07:15:13.700Z,438.75
2019-06-20T07:16:13.701Z,506.25
2019-06-20T07:17:13.680Z,511.87
2019-06-20T07:18:13.666Z,500.62
2019-06-20T07:19:13.655Z,416.25
2019-06-20T07:20:15.318Z,388.12
2019-06-20T07:21:13.634Z,472.50
2019-06-20T07:22:13.621Z,438.75
2019-06-20T07:23:13.610Z,421.87
2019-06-20T07:24:13.605Z,326.25
2019-06-20T07:25:13.592Z,343.12
2019-06-20T07:26:13.582Z,303.75
2019-06-20T07:27:13.568Z,303.75
2019-06-20T07:28:13.565Z,309.37
2019-06-20T07:29:13.543Z,320.62
2019-06-20T07:30:13.534Z,331.87
2019-06-20T07:31:13.529Z,343.12
2019-06-20T07:32:13.515Z,365.62
2019-06-20T07:33:13.499Z,382.50
2019-06-20T07:34:13.489Z,399.37
2019-06-20T07:35:13.481Z,405.00
2019-06-20T07:36:13.469Z,371.25
2019-06-20T07:37:13.489Z,348.75
2019-06-20T07:38:13.448Z,331.87
2019-06-20T07:39:13.438Z,303.75
2019-06-20T07:40:13.424Z,247.50
2019-06-20T07:41:13.414Z,202.50
2019-06-20T07:42:13.400Z,174.37
2019-06-20T07:43:13.402Z,163.12
2019-06-20T07:44:13.404Z,157.50
2019-06-20T07:45:13.405Z,146.25
2019-06-20T07:46:13.359Z,135.00
2019-06-20T07:47:17.736Z,123.75
2019-06-20T07:48:13.356Z,112.50
2019-06-20T07:49:13.358Z,101.25
2019-06-20T07:50:13.361Z,95.62
2019-06-20T07:51:13.311Z,90.00
2019-06-20T07:52:13.290Z,84.37
2019-06-20T07:53:13.279Z,84.37
2019-06-20T07:54:13.267Z,78.75
2019-06-20T07:55:13.256Z,84.37
2019-06-20T07:56:13.246Z,90.00
2019-06-20T07:57:13.237Z,95.62
2019-06-20T07:58:13.226Z,106.87
2019-06-20T07:59:13.211Z,118.12
2019-06-20T08:00:13.200Z,135.00
2019-06-20T08:01:13.197Z,157.50
2019-06-20T08:02:13.185Z,185.62
2019-06-20T08:03:13.184Z,202.50
2019-06-20T08:04:13.159Z,225.00
2019-06-20T08:05:13.147Z,230.62
2019-06-20T08:06:13.173Z,230.62
2019-06-20T08:07:13.122Z,213.75
2019-06-20T08:08:13.110Z,196.87
2019-06-20T08:09:13.108Z,185.62
2019-06-20T08:10:13.093Z,185.62
2019-06-20T08:11:13.078Z,174.37
2019-06-20T08:12:13.108Z,163.12
2019-06-20T08:13:13.052Z,157.50
2019-06-20T08:14:13.052Z,151.87
2019-06-20T08:15:15.651Z,151.87
2019-06-20T08:16:13.018Z,163.12
2019-06-20T08:17:13.011Z,168.75
2019-06-20T08:18:13.008Z,185.62
2019-06-20T08:19:12.990Z,191.25
2019-06-20T08:20:12.974Z,196.87
2019-06-20T08:21:12.962Z,208.12
2019-06-20T08:22:12.970Z,230.62
2019-06-20T08:23:12.940Z,247.50
2019-06-20T08:24:12.933Z,275.62
2019-06-20T08:25:12.922Z,326.25
2019-06-20T08:26:12.906Z,427.50
2019-06-20T08:27:14.943Z,483.75
2019-06-20T08:28:12.888Z,888.75
2019-06-20T08:29:20.710Z,933.75
2019-06-20T08:30:37.340Z,725.62
2019-06-20T08:31:37.331Z,601.87
2019-06-20T08:32:37.316Z,551.25
2019-06-20T08:33:37.312Z,444.37
2019-06-20T08:34:37.292Z,376.87
2019-06-20T08:35:37.297Z,331.87
2019-06-20T08:36:37.281Z,326.25
2019-06-20T08:37:37.265Z,365.62
2019-06-20T08:38:37.255Z,472.50
2019-06-20T08:39:37.248Z,720.00
2019-06-20T08:40:37.228Z,1946.25
2019-06-20T08:41:37.221Z,1614.37
2019-06-20T08:42:37.209Z,2356.87
2019-06-20T08:43:37.195Z,2295.00
2019-06-20T08:44:37.193Z,2418.75
2019-06-20T08:45:37.181Z,1372.50
2019-06-20T08:46:37.164Z,1035.00
2019-06-20T08:47:37.154Z,1507.50
2019-06-20T08:48:37.140Z,1963.12
2019-06-20T08:49:37.132Z,1321.87
2019-06-20T08:50:37.123Z,883.12
2019-06-20T08:51:37.152Z,2700.00
2019-06-20T08:52:37.100Z,2643.75
2019-06-20T08:53:37.087Z,961.87
2019-06-20T08:54:37.086Z,1203.75
2019-06-20T08:55:37.067Z,883.12
2019-06-20T08:56:37.079Z,703.12
2019-06-20T08:57:37.044Z,680.62
2019-06-20T08:58:37.031Z,815.62
2019-06-20T08:59:37.029Z,466.87
2019-06-20T09:00:37.172Z,466.87
2019-06-20T09:01:37.001Z,478.12
2019-06-20T09:02:37.029Z,1231.87
2019-06-20T09:03:36.982Z,1951.87
2019-06-20T09:04:36.983Z,1985.62
2019-06-20T09:05:36.966Z,528.75
2019-06-20T09:06:36.951Z,393.75
2019-06-20T09:07:36.935Z,320.62
2019-06-20T09:08:36.923Z,286.87
2019-06-20T09:09:36.912Z,264.37
2019-06-20T09:10:36.939Z,247.50
2019-06-20T09:11:36.895Z,236.25
2019-06-20T09:12:36.880Z,230.62
2019-06-20T09:13:36.889Z,219.37
2019-06-20T09:14:36.863Z,202.50
2019-06-20T09:15:36.874Z,180.00
2019-06-20T09:16:36.843Z,163.12
2019-06-20T09:17:36.826Z,151.87
2019-06-20T09:18:36.816Z,140.62
2019-06-20T09:19:36.807Z,129.37
2019-06-20T09:20:36.796Z,118.12
2019-06-20T09:21:36.781Z,118.12
2019-06-20T09:22:36.773Z,123.75
2019-06-20T09:23:36.760Z,135.00
2019-06-20T09:24:36.751Z,146.25
2019-06-20T09:25:36.739Z,151.87
2019-06-20T09:26:36.728Z,168.75
2019-06-20T09:27:36.716Z,196.87
2019-06-20T09:28:36.711Z,241.87
2019-06-20T09:29:41.759Z,281.25
2019-06-20T09:30:36.798Z,303.75
2019-06-20T09:31:36.675Z,326.25
2019-06-20T09:32:36.729Z,320.62
2019-06-20T09:33:36.650Z,303.75
2019-06-20T09:34:36.641Z,298.12
2019-06-20T09:35:36.627Z,1018.12
2019-06-20T09:36:36.645Z,270.00
2019-06-20T09:37:36.608Z,241.87
2019-06-20T09:38:36.594Z,225.00
2019-06-20T09:39:36.584Z,225.00
2019-06-20T09:40:36.573Z,230.62
2019-06-20T09:41:36.569Z,247.50
2019-06-20T09:42:36.963Z,281.25
2019-06-20T09:43:36.538Z,337.50
2019-06-20T09:44:36.531Z,438.75
2019-06-20T09:45:36.515Z,1614.37
2019-06-20T09:46:36.506Z,1873.12
2019-06-20T09:47:36.494Z,1648.12
2019-06-20T09:48:36.483Z,545.62
2019-06-20T09:49:36.477Z,455.62
2019-06-20T09:50:36.465Z,450.00
2019-06-20T09:51:36.460Z,405.00
2019-06-20T09:52:36.446Z,427.50
2019-06-20T09:53:36.434Z,466.87
2019-06-20T09:54:36.425Z,506.25
2019-06-20T09:55:36.407Z,551.25
2019-06-20T09:56:36.404Z,568.12
2019-06-20T09:57:36.387Z,517.50
2019-06-20T09:58:36.374Z,511.87
2019-06-20T09:59:36.370Z,540.00
2019-06-20T10:00:36.360Z,562.50
2019-06-20T10:01:36.357Z,590.62
2019-06-20T10:02:36.335Z,945.00
2019-06-20T10:03:36.322Z,573.75
2019-06-20T10:04:36.315Z,540.00
2019-06-20T10:05:36.302Z,523.12
2019-06-20T10:06:36.288Z,613.12
2019-06-20T10:07:36.287Z,1535.62
2019-06-20T10:08:36.277Z,686.25
2019-06-20T10:09:36.269Z,663.75
2019-06-20T10:10:36.248Z,787.50
2019-06-20T10:11:36.235Z,973.12
2019-06-20T10:12:36.226Z,725.62
2019-06-20T10:13:36.213Z,832.50
2019-06-20T10:14:36.201Z,720.00
2019-06-20T10:15:36.192Z,680.62
2019-06-20T10:16:45.359Z,658.12
2019-06-20T10:17:37.202Z,618.75
2019-06-20T10:18:36.177Z,652.50
2019-06-20T10:19:36.148Z,759.37
2019-06-20T10:20:38.817Z,849.37
2019-06-20T10:21:36.131Z,1231.87
2019-06-20T10:22:36.116Z,1181.25
2019-06-20T10:23:36.111Z,1530.00
2019-06-20T10:24:36.095Z,2160.00
2019-06-20T10:25:36.086Z,2120.62
2019-06-20T10:26:37.778Z,2154.37
2019-06-20T10:27:36.062Z,2255.62
2019-06-20T10:28:36.052Z,2233.12
2019-06-20T10:29:36.041Z,2058.75
2019-06-20T10:30:36.031Z,2171.25
2019-06-20T10:31:36.020Z,2070.00
2019-06-20T10:32:36.007Z,1563.75
2019-06-20T10:33:36.002Z,1901.25
2019-06-20T10:34:35.990Z,1867.50
2019-06-20T10:35:35.980Z,2047.50
2019-06-20T10:36:35.969Z,2143.12
2019-06-20T10:37:35.954Z,1946.25
2019-06-20T10:38:35.946Z,1923.75
2019-06-20T10:39:35.938Z,1603.12
2019-06-20T10:40:35.925Z,2193.75
2019-06-20T10:41:35.914Z,753.75
2019-06-20T10:42:35.902Z,2396.25
2019-06-20T10:43:35.897Z,2295.00
2019-06-20T10:44:35.883Z,2120.62
2019-06-20T10:45:35.875Z,601.87
2019-06-20T10:46:35.909Z,483.75
2019-06-20T10:47:36.210Z,495.00
2019-06-20T10:48:35.841Z,630.00
2019-06-20T10:49:35.830Z,511.87
2019-06-20T10:50:35.826Z,483.75
2019-06-20T10:51:35.807Z,500.62
2019-06-20T10:52:35.797Z,579.37
2019-06-20T10:53:35.787Z,579.37
2019-06-20T10:54:35.779Z,579.37
2019-06-20T10:55:35.771Z,551.25
2019-06-20T10:56:35.756Z,534.37
2019-06-20T10:57:35.743Z,534.37
2019-06-20T10:58:35.735Z,551.25
2019-06-20T10:59:35.723Z,545.62
2019-06-20T11:00:35.741Z,556.87
2019-06-20T11:01:35.701Z,556.87
2019-06-20T11:02:35.693Z,663.75
2019-06-20T11:03:35.693Z,624.37
2019-06-20T11:04:35.782Z,691.87
2019-06-20T11:05:35.657Z,1080.00
2019-06-20T11:06:35.677Z,900.00
2019-06-20T11:07:35.651Z,1170.00
2019-06-20T11:08:35.628Z,1828.12
2019-06-20T11:09:35.619Z,2379.37
2019-06-20T11:10:35.609Z,1980.00
2019-06-20T11:11:35.650Z,1816.87
2019-06-20T11:12:45.580Z,1704.37
2019-06-20T11:14:00.057Z,1687.50
2019-06-20T11:15:00.042Z,1642.50
2019-06-20T11:16:00.027Z,1530.00
2019-06-20T11:17:00.024Z,1372.50
2019-06-20T11:18:00.007Z,1569.37
2019-06-20T11:19:00.001Z,1608.75
2019-06-20T11:20:00.002Z,1350.00
2019-06-20T11:20:59.976Z,1192.50
2019-06-20T11:21:59.968Z,1226.25
2019-06-20T11:22:59.955Z,1057.50
2019-06-20T11:23:59.963Z,1198.12
2019-06-20T11:24:59.936Z,1473.75
2019-06-20T11:25:59.933Z,1451.25
2019-06-20T11:26:59.918Z,1355.62
2019-06-20T11:27:59.905Z,1310.62
2019-06-20T11:28:59.896Z,1378.12
2019-06-20T11:29:59.892Z,1428.75
2019-06-20T11:31:00.782Z,1366.87
2019-06-20T11:31:59.871Z,1260.00
2019-06-20T11:32:59.855Z,1226.25
2019-06-20T11:33:59.846Z,1243.12
2019-06-20T11:34:59.847Z,1265.62
2019-06-20T11:35:59.827Z,1288.12
2019-06-20T11:36:59.812Z,1305.00
2019-06-20T11:37:59.802Z,1333.12
2019-06-20T11:38:59.850Z,1366.87
2019-06-20T11:39:59.781Z,1417.50
2019-06-20T11:40:59.773Z,1333.12
2019-06-20T11:41:59.766Z,1170.00
2019-06-20T11:42:59.750Z,1147.50
2019-06-20T11:43:59.740Z,1260.00
2019-06-20T11:44:59.730Z,1248.75
2019-06-20T11:45:59.726Z,1102.50
2019-06-20T11:46:59.709Z,1406.25
2019-06-20T11:47:59.698Z,1445.62
2019-06-20T11:48:59.695Z,1220.62
2019-06-20T11:49:59.696Z,1023.75
2019-06-20T11:50:59.681Z,894.37
2019-06-20T11:51:59.657Z,365.62
2019-06-20T11:52:59.651Z,326.25
2019-06-20T11:53:59.643Z,309.37
2019-06-20T11:54:59.634Z,331.87
2019-06-20T11:55:59.620Z,371.25
2019-06-20T11:56:59.606Z,348.75
2019-06-20T11:57:59.607Z,348.75
2019-06-20T11:58:59.588Z,348.75
2019-06-20T11:59:59.582Z,646.87
2019-06-20T12:01:03.920Z,630.00
2019-06-20T12:01:59.560Z,663.75
2019-06-20T12:02:59.542Z,472.50
2019-06-20T12:03:59.551Z,483.75
2019-06-20T12:04:59.521Z,466.87
2019-06-20T12:05:59.526Z,495.00
2019-06-20T12:06:59.499Z,523.12
2019-06-20T12:07:59.494Z,568.12
2019-06-20T12:08:59.484Z,630.00
2019-06-20T12:09:59.478Z,607.50
2019-06-20T12:10:59.461Z,573.75
2019-06-20T12:11:59.451Z,483.75
2019-06-20T12:12:59.440Z,444.37
2019-06-20T12:13:59.431Z,416.25
2019-06-20T12:14:59.424Z,410.62
2019-06-20T12:15:59.409Z,427.50
2019-06-20T12:16:59.399Z,438.75
2019-06-20T12:17:59.392Z,568.12
2019-06-20T12:18:59.388Z,742.50
2019-06-20T12:19:59.367Z,950.62
2019-06-20T12:20:59.433Z,978.75
2019-06-20T12:21:59.351Z,995.62
2019-06-20T12:22:59.344Z,961.87
2019-06-20T12:23:59.343Z,877.50
2019-06-20T12:24:59.361Z,905.62
2019-06-20T12:25:59.363Z,888.75
2019-06-20T12:26:59.295Z,888.75
2019-06-20T12:27:59.297Z,894.37
2019-06-20T12:28:59.323Z,838.12
2019-06-20T12:29:59.305Z,770.62
2019-06-20T12:30:59.250Z,753.75
2019-06-20T12:31:59.242Z,691.87
2019-06-20T12:32:59.230Z,641.25
2019-06-20T12:33:59.216Z,607.50
2019-06-20T12:34:59.211Z,590.62
2019-06-20T12:35:59.196Z,540.00
2019-06-20T12:36:59.185Z,506.25
2019-06-20T12:37:59.177Z,371.25
2019-06-20T12:38:59.170Z,303.75
2019-06-20T12:39:59.154Z,320.62
2019-06-20T12:40:59.152Z,292.50
2019-06-20T12:41:59.146Z,270.00
2019-06-20T12:43:59.113Z,315.00
2019-06-20T12:44:59.103Z,326.25
2019-06-20T12:45:59.117Z,337.50
2019-06-20T12:46:59.084Z,343.12
2019-06-20T12:47:59.076Z,348.75
2019-06-20T12:48:59.072Z,360.00
2019-06-20T12:49:59.056Z,376.87
2019-06-20T12:50:59.046Z,365.62
2019-06-20T12:51:59.031Z,371.25
2019-06-20T12:52:59.020Z,360.00
2019-06-20T12:53:59.020Z,348.75
2019-06-20T12:54:59.004Z,320.62
2019-06-20T12:55:58.992Z,286.87
2019-06-20T12:56:58.980Z,264.37
2019-06-20T12:57:58.974Z,258.75
2019-06-20T12:58:58.966Z,258.75
2019-06-20T12:59:58.955Z,241.87
2019-06-20T13:00:58.946Z,236.25
2019-06-20T13:01:58.946Z,225.00
2019-06-20T13:02:58.923Z,213.75
2019-06-20T13:03:58.923Z,202.50
2019-06-20T13:04:58.904Z,196.87
2019-06-20T13:05:58.899Z,208.12
2019-06-20T13:06:58.885Z,225.00
2019-06-20T13:07:58.988Z,236.25
2019-06-20T13:08:58.855Z,241.87
2019-06-20T13:09:58.846Z,253.12
2019-06-20T13:10:58.835Z,264.37
2019-06-20T13:11:58.825Z,270.00
2019-06-20T13:12:58.821Z,275.62
2019-06-20T13:13:58.802Z,286.87
2019-06-20T13:14:58.793Z,298.12
2019-06-20T13:15:58.785Z,303.75
2019-06-20T13:16:58.771Z,320.62
2019-06-20T13:17:58.762Z,331.87
2019-06-20T13:18:58.757Z,331.87
2019-06-20T13:19:58.785Z,326.25
2019-06-20T13:20:58.728Z,320.62
2019-06-20T13:21:58.720Z,303.75
2019-06-20T13:22:58.728Z,286.87
2019-06-20T13:23:58.698Z,270.00
2019-06-20T13:24:58.689Z,253.12
2019-06-20T13:25:58.677Z,236.25
2019-06-20T13:26:58.669Z,225.00
2019-06-20T13:27:58.657Z,225.00
2019-06-20T13:29:03.983Z,230.62
2019-06-20T13:30:23.124Z,230.62
2019-06-20T13:31:23.101Z,230.62
2019-06-20T13:32:23.092Z,219.37
2019-06-20T13:33:23.150Z,213.75
2019-06-20T13:34:23.079Z,208.12
2019-06-20T13:35:23.058Z,202.50
2019-06-20T13:36:23.052Z,202.50
2019-06-20T13:37:23.035Z,196.87
2019-06-20T13:38:23.026Z,191.25
2019-06-20T13:39:23.015Z,191.25
2019-06-20T13:40:23.006Z,191.25
2019-06-20T13:41:22.993Z,196.87
2019-06-20T13:42:22.985Z,196.87
2019-06-20T13:43:22.972Z,191.25
2019-06-20T13:44:23.916Z,180.00
2019-06-20T13:45:22.954Z,174.37
2019-06-20T13:46:22.952Z,163.12
2019-06-20T13:47:22.931Z,157.50
2019-06-20T13:48:22.916Z,146.25
2019-06-20T13:49:22.905Z,140.62
2019-06-20T13:50:22.894Z,129.37
2019-06-20T13:51:22.888Z,112.50
2019-06-20T13:52:22.884Z,101.25
2019-06-20T13:53:22.863Z,90.00
2019-06-20T13:54:22.858Z,84.37
2019-06-20T13:55:22.840Z,78.75
2019-06-20T13:56:22.832Z,73.12
2019-06-20T13:57:22.825Z,67.50
2019-06-20T13:58:22.819Z,67.50
2019-06-20T13:59:22.801Z,67.50
2019-06-20T14:00:22.788Z,67.50
2019-06-20T14:01:22.780Z,67.50
2019-06-20T14:02:22.763Z,67.50
2019-06-20T14:03:22.761Z,67.50
2019-06-20T14:04:22.748Z,73.12
2019-06-20T14:05:22.740Z,73.12
2019-06-20T14:06:22.720Z,73.12
2019-06-20T14:07:22.709Z,78.75
2019-06-20T14:08:22.721Z,78.75
2019-06-20T14:09:22.695Z,84.37
2019-06-20T14:10:22.680Z,95.62
2019-06-20T14:11:22.666Z,106.87
2019-06-20T14:12:22.657Z,129.37
2019-06-20T14:13:22.653Z,135.00
2019-06-20T14:14:22.658Z,146.25
2019-06-20T14:15:22.631Z,157.50
2019-06-20T14:16:22.622Z,163.12
2019-06-20T14:17:22.604Z,168.75
2019-06-20T14:18:22.593Z,174.37
2019-06-20T14:19:22.579Z,185.62
2019-06-20T14:20:22.570Z,196.87
2019-06-20T14:21:22.557Z,202.50
2019-06-20T14:22:22.549Z,202.50
2019-06-20T14:23:22.543Z,196.87
2019-06-20T14:24:22.527Z,191.25
2019-06-20T14:25:22.521Z,191.25
2019-06-20T14:26:22.504Z,185.62
2019-06-20T14:27:22.511Z,180.00
2019-06-20T14:28:22.492Z,174.37
2019-06-20T14:29:22.471Z,168.75
2019-06-20T14:30:22.479Z,157.50
2019-06-20T14:31:22.454Z,140.62
2019-06-20T14:32:22.619Z,129.37
2019-06-20T14:33:22.430Z,112.50
2019-06-20T14:34:22.433Z,101.25
2019-06-20T14:35:22.414Z,95.62
2019-06-20T14:36:22.398Z,84.37
2019-06-20T14:37:22.386Z,78.75
2019-06-20T14:38:22.379Z,73.12
2019-06-20T14:39:22.362Z,67.50